createdAt,value
2023-01-17T00:01:41.082Z,945.60
2023-01-17T00:06:41.022Z,945.63
2023-01-17T00:11:40.995Z,945.66
2023-01-17T00:16:40.947Z,945.75
2023-01-17T00:21:40.854Z,945.81
2023-01-17T00:26:40.799Z,945.73
2023-01-17T00:31:40.749Z,945.72
2023-01-17T00:36:40.822Z,945.84
2023-01-17T00:41:40.598Z,945.93
2023-01-17T00:46:40.619Z,945.98
2023-01-17T00:51:40.479Z,946.06
2023-01-17T00:56:40.406Z,946.13
2023-01-17T01:01:40.517Z,946.22
2023-01-17T01:06:40.295Z,946.27
2023-01-17T01:11:40.241Z,946.27
2023-01-17T01:16:40.157Z,946.35
2023-01-17T01:21:40.104Z,946.29
2023-01-17T01:26:40.035Z,946.29
2023-01-17T01:31:40.019Z,946.47
2023-01-17T01:36:39.912Z,946.55
2023-01-17T01:41:39.873Z,946.62
2023-01-17T01:46:39.844Z,946.65
2023-01-17T01:51:39.767Z,946.61
2023-01-17T01:56:39.694Z,946.72
2023-01-17T02:01:39.746Z,946.70
2023-01-17T02:06:39.589Z,946.71
2023-01-17T02:11:39.544Z,946.70
2023-01-17T02:16:39.508Z,946.58
2023-01-17T02:21:39.425Z,946.60
2023-01-17T02:26:39.368Z,946.64
2023-01-17T02:31:39.377Z,946.65
2023-01-17T02:36:39.258Z,946.64
2023-01-17T02:41:39.206Z,946.64
2023-01-17T02:46:39.144Z,946.63
2023-01-17T02:51:39.120Z,946.63
2023-01-17T02:56:39.025Z,946.63
2023-01-17T03:01:39.068Z,946.73
2023-01-17T03:06:38.915Z,946.84
2023-01-17T03:11:38.863Z,946.82
2023-01-17T03:16:38.847Z,946.89
2023-01-17T03:21:38.734Z,946.86
2023-01-17T03:26:38.686Z,947.01
2023-01-17T03:31:38.624Z,947.06
2023-01-17T03:36:38.567Z,947.05
2023-01-17T03:41:38.514Z,947.07
2023-01-17T03:46:38.448Z,947.19
2023-01-17T03:51:38.384Z,947.22
2023-01-17T03:56:38.342Z,947.28
2023-01-17T04:01:38.343Z,947.23
2023-01-17T04:06:38.228Z,947.24
2023-01-17T04:11:38.159Z,947.35
2023-01-17T04:16:38.116Z,947.31
2023-01-17T04:21:38.044Z,947.31
2023-01-17T04:26:38.002Z,947.36
2023-01-17T04:31:38.010Z,947.47
2023-01-17T04:36:37.919Z,947.48
2023-01-17T04:41:37.820Z,947.52
2023-01-17T04:46:37.755Z,947.56
2023-01-17T04:51:37.706Z,947.60
2023-01-17T04:56:37.671Z,947.67
2023-01-17T05:01:37.716Z,947.65
2023-01-17T05:06:37.536Z,947.71
2023-01-17T05:11:37.496Z,947.72
2023-01-17T05:16:37.416Z,947.73
2023-01-17T05:21:37.383Z,947.77
2023-01-17T05:26:37.277Z,947.80
2023-01-17T05:31:37.224Z,947.95
2023-01-17T05:36:37.163Z,947.99
2023-01-17T05:41:37.094Z,947.99
2023-01-17T05:46:37.130Z,947.95
2023-01-17T05:51:36.983Z,947.95
2023-01-17T05:56:36.937Z,947.99
2023-01-17T06:01:36.869Z,948.03
2023-01-17T06:06:36.833Z,948.06
2023-01-17T06:11:36.734Z,948.24
2023-01-17T06:16:36.685Z,948.23
2023-01-17T06:21:36.605Z,948.21
2023-01-17T06:26:36.555Z,948.25
2023-01-17T06:31:36.552Z,948.27
2023-01-17T06:36:36.430Z,948.33
2023-01-17T06:41:36.368Z,948.40
2023-01-17T06:46:36.343Z,948.47
2023-01-17T06:51:36.243Z,948.48
2023-01-17T06:56:36.185Z,948.58
2023-01-17T07:01:36.195Z,948.62
2023-01-17T07:06:36.062Z,948.71
2023-01-17T07:11:36.003Z,948.78
2023-01-17T07:16:35.934Z,948.77
2023-01-17T07:21:35.864Z,948.69
2023-01-17T07:26:35.812Z,948.70
2023-01-17T07:31:35.832Z,948.60
2023-01-17T07:36:35.687Z,948.48
2023-01-17T07:41:35.623Z,948.50
2023-01-17T07:46:35.643Z,948.55
2023-01-17T07:51:35.493Z,948.56
2023-01-17T07:56:35.433Z,948.50
2023-01-17T08:01:35.537Z,948.51
2023-01-17T08:06:35.315Z,948.50
2023-01-17T08:11:35.275Z,948.50
2023-01-17T08:16:35.237Z,948.52
2023-01-17T08:21:35.133Z,948.52
2023-01-17T08:26:35.071Z,948.55
2023-01-17T08:31:35.065Z,948.58
2023-01-17T08:36:34.956Z,948.54
2023-01-17T08:41:34.910Z,948.38
2023-01-17T08:46:34.843Z,948.40
2023-01-17T08:51:34.794Z,948.36
2023-01-17T08:56:34.776Z,948.45
2023-01-17T09:01:34.813Z,948.41
2023-01-17T09:06:34.617Z,948.45
2023-01-17T09:11:34.544Z,948.48
2023-01-17T09:16:34.527Z,948.49
2023-01-17T09:21:34.433Z,948.56
2023-01-17T09:26:34.374Z,948.52
2023-01-17T09:31:34.315Z,948.43
2023-01-17T09:36:34.248Z,948.29
2023-01-17T09:41:34.186Z,948.31
2023-01-17T09:46:34.126Z,948.36
2023-01-17T09:51:34.060Z,948.37
2023-01-17T09:56:34.015Z,948.27
2023-01-17T10:01:34.094Z,948.33
2023-01-17T10:06:33.891Z,948.32
2023-01-17T10:11:33.826Z,948.37
2023-01-17T10:16:33.798Z,948.31
2023-01-17T10:21:33.714Z,948.27
2023-01-17T10:26:33.665Z,948.23
2023-01-17T10:31:33.605Z,948.17
2023-01-17T10:36:33.557Z,948.08
2023-01-17T10:41:33.507Z,947.95
2023-01-17T10:46:33.485Z,947.77
2023-01-17T10:51:33.365Z,947.62
2023-01-17T10:56:33.315Z,947.49
2023-01-17T11:01:33.337Z,947.40
2023-01-17T11:06:33.215Z,947.25
2023-01-17T11:11:33.133Z,947.15
2023-01-17T11:16:33.086Z,947.13
2023-01-17T11:21:32.987Z,947.11
2023-01-17T11:26:32.924Z,947.06
2023-01-17T11:31:32.857Z,946.97
2023-01-17T11:36:32.789Z,947.02
2023-01-17T11:41:32.718Z,946.93
2023-01-17T11:46:32.694Z,947.02
2023-01-17T11:51:32.605Z,947.00
2023-01-17T11:56:32.537Z,946.97
2023-01-17T12:01:32.469Z,946.94
2023-01-17T12:06:32.407Z,946.89
2023-01-17T12:11:32.341Z,946.78
2023-01-17T12:16:32.288Z,946.70
2023-01-17T12:21:32.217Z,946.73
2023-01-17T12:26:32.170Z,946.69
2023-01-17T12:31:32.146Z,946.70
2023-01-17T12:36:32.041Z,946.61
2023-01-17T12:41:31.970Z,946.47
2023-01-17T12:46:31.971Z,946.52
2023-01-17T12:51:31.849Z,946.47
2023-01-17T12:56:31.792Z,946.52
2023-01-17T13:01:31.798Z,946.54
2023-01-17T13:06:31.669Z,946.50
2023-01-17T13:11:31.597Z,946.54
2023-01-17T13:16:31.592Z,946.50
2023-01-17T13:21:31.493Z,946.45
2023-01-17T13:26:31.425Z,946.43
2023-01-17T13:31:31.365Z,946.32
2023-01-17T13:36:31.290Z,946.20
2023-01-17T13:41:31.239Z,946.14
2023-01-17T13:46:31.176Z,946.06
2023-01-17T13:51:31.098Z,945.92
2023-01-17T13:56:31.049Z,945.88
2023-01-17T14:01:31.050Z,945.80
2023-01-17T14:06:30.910Z,945.74
2023-01-17T14:11:30.851Z,945.76
2023-01-17T14:16:30.819Z,945.77
2023-01-17T14:21:30.720Z,945.75
2023-01-17T14:26:30.660Z,945.67
2023-01-17T14:31:30.669Z,945.61
2023-01-17T14:36:30.561Z,945.54
2023-01-17T14:41:30.478Z,945.44
2023-01-17T14:46:30.414Z,945.42
2023-01-17T14:51:30.347Z,945.39
2023-01-17T14:56:30.288Z,945.30
2023-01-17T15:01:30.296Z,945.25
2023-01-17T15:06:30.165Z,945.36
2023-01-17T15:11:30.094Z,945.27
2023-01-17T15:16:30.116Z,945.11
2023-01-17T15:21:29.964Z,945.04
2023-01-17T15:26:29.924Z,944.91
2023-01-17T15:31:29.843Z,944.86
2023-01-17T15:36:29.785Z,944.80
2023-01-17T15:41:29.722Z,944.77
2023-01-17T15:46:29.731Z,944.78
2023-01-17T15:51:29.603Z,944.78
2023-01-17T15:56:29.563Z,944.76
2023-01-17T16:01:29.595Z,944.78
2023-01-17T16:06:29.442Z,944.66
2023-01-17T16:11:29.401Z,944.60
2023-01-17T16:16:29.402Z,944.51
2023-01-17T16:21:29.276Z,944.54
2023-01-17T16:26:29.405Z,944.51
2023-01-17T16:31:29.154Z,944.48
2023-01-17T16:36:29.081Z,944.51
2023-01-17T16:41:29.042Z,944.44
2023-01-17T16:46:29.015Z,944.38
2023-01-17T16:51:28.895Z,944.29
2023-01-17T16:56:28.853Z,944.25
2023-01-17T17:01:28.868Z,944.16
2023-01-17T17:06:28.712Z,943.97
2023-01-17T17:11:28.642Z,943.93
2023-01-17T17:16:28.607Z,944.03
2023-01-17T17:21:28.521Z,943.96
2023-01-17T17:26:31.224Z,943.97
2023-01-17T17:31:28.492Z,943.99
2023-01-17T17:36:28.362Z,944.07
2023-01-17T17:41:28.303Z,944.22
2023-01-17T17:46:28.226Z,944.16
2023-01-17T17:51:28.162Z,944.12
2023-01-17T17:56:28.080Z,944.17
2023-01-17T18:01:28.105Z,944.14
2023-01-17T18:06:27.982Z,944.07
2023-01-17T18:11:27.913Z,944.00
2023-01-17T18:16:27.969Z,944.01
2023-01-17T18:21:27.801Z,944.04
2023-01-17T18:26:27.735Z,944.04
2023-01-17T18:31:27.702Z,944.17
2023-01-17T18:36:27.625Z,944.22
2023-01-17T18:41:27.550Z,944.26
2023-01-17T18:46:27.516Z,944.25
2023-01-17T18:51:27.418Z,944.32
2023-01-17T18:56:27.361Z,944.37
2023-01-17T19:01:27.317Z,944.51
2023-01-17T19:06:27.252Z,944.52
2023-01-17T19:11:27.186Z,944.61
2023-01-17T19:16:27.134Z,944.70
2023-01-17T19:21:27.049Z,944.77
2023-01-17T19:26:27.066Z,944.85
2023-01-17T19:31:26.933Z,944.78
2023-01-17T19:36:26.869Z,944.82
2023-01-17T19:41:26.809Z,944.92
2023-01-17T19:46:26.752Z,944.89
2023-01-17T19:51:26.706Z,944.90
2023-01-17T19:56:26.644Z,945.03
2023-01-17T20:01:26.666Z,944.94
2023-01-17T20:06:26.512Z,944.93
2023-01-17T20:11:26.465Z,944.89
2023-01-17T20:16:26.497Z,944.80
2023-01-17T20:21:26.324Z,944.86
2023-01-17T20:26:26.260Z,944.86
2023-01-17T20:31:26.218Z,944.87
2023-01-17T20:36:26.137Z,944.90
2023-01-17T20:41:26.076Z,944.85
2023-01-17T20:46:26.026Z,944.76
2023-01-17T20:51:25.948Z,944.73
2023-01-17T20:56:25.897Z,944.73
2023-01-17T21:01:25.930Z,944.75
2023-01-17T21:06:25.769Z,944.79
2023-01-17T21:11:25.712Z,944.84
2023-01-17T21:16:25.680Z,944.83
2023-01-17T21:21:25.597Z,944.80
2023-01-17T21:26:25.527Z,944.79
2023-01-17T21:31:25.459Z,944.77
2023-01-17T21:36:25.409Z,944.68
2023-01-17T21:41:25.345Z,944.65
2023-01-17T21:46:25.353Z,944.71
2023-01-17T21:51:25.235Z,944.72
2023-01-17T21:56:25.156Z,944.76
2023-01-17T22:01:25.246Z,944.89
2023-01-17T22:06:25.028Z,944.95
2023-01-17T22:11:24.968Z,945.05
2023-01-17T22:16:24.908Z,945.10
2023-01-17T22:21:24.852Z,945.12
2023-01-17T22:26:24.794Z,945.17
2023-01-17T22:31:24.776Z,945.16
2023-01-17T22:36:24.680Z,945.18
2023-01-17T22:41:24.595Z,945.07
2023-01-17T22:46:24.596Z,945.03
2023-01-17T22:51:24.515Z,945.01
2023-01-17T22:56:24.421Z,945.10
2023-01-17T23:01:24.435Z,945.17
2023-01-17T23:06:24.286Z,945.14
2023-01-17T23:11:24.234Z,945.13
2023-01-17T23:16:24.228Z,945.13
2023-01-17T23:21:24.107Z,945.18
2023-01-17T23:26:24.051Z,945.22
2023-01-17T23:31:24.021Z,945.25
2023-01-17T23:36:23.928Z,945.32
2023-01-17T23:41:23.871Z,945.31
2023-01-17T23:46:23.837Z,945.23
2023-01-17T23:51:23.747Z,945.36
2023-01-17T23:56:23.676Z,945.30
